Time;durP1;ratioP1;P1;durP2;ratioP2;P2;SDS_P1;SDS_P2;PMS_P1;PMS_P2;Temp;Humidity;BMP_temperature;BMP_pressure;BME280_temperature;BME280_humidity;BME280_pressure;Samples;Min_cycle;Max_cycle;Signal;HPM_P1;HPM_P2
2022/02/05 00:01:37;;;;;;;2.70;1.02;;;;;;;1.21;84.94;96742.34;2079521;28;20201;-64
2022/02/05 00:03:43;;;;;;;3.83;0.90;;;;;;;1.29;84.93;96763.59;2079308;28;20203;-63
2022/02/05 00:04:12;;;;;;;5.78;1.17;;;;;;;1.24;84.74;96760.34;2070478;28;20201;-64
2022/02/05 00:05:17;;;;;;;2.00;0.88;;;;;;;1.20;84.47;96771.63;2079211;28;20536;-63
2022/02/05 00:06:22;;;;;;;2.28;1.40;;;;;;;1.17;84.38;96782.03;2079669;28;20216;-63
2022/02/05 00:07:26;;;;;;;2.95;1.30;;;;;;;1.02;84.45;96769.56;2079433;28;20201;-63
2022/02/05 00:38:13;;;;;;;11.82;1.08;;;;;;;0.44;81.64;96820.97;2079310;28;20236;-62
2022/02/05 00:38:38;;;;;;;3.10;0.90;;;;;;;0.30;82.00;96801.53;2079471;28;20527;-61
2022/02/05 00:41:50;;;;;;;4.75;1.02;;;;;;;0.49;81.99;96829.41;2079471;28;20208;-62
2022/02/05 00:42:53;;;;;;;4.90;0.98;;;;;;;0.49;81.35;96831.97;2079439;28;20201;-61
2022/02/05 00:43:58;;;;;;;5.38;1.10;;;;;;;0.50;81.51;96833.69;2079596;28;20221;-61
2022/02/05 00:45:06;;;;;;;9.48;1.38;;;;;;;0.49;80.82;96840.59;2079204;28;20188;-61
2022/02/05 00:46:08;;;;;;;3.10;0.70;;;;;;;0.54;81.13;96838.72;2079310;28;20220;-62
2022/02/05 00:47:11;;;;;;;3.60;1.00;;;;;;;0.59;81.32;96836.88;2078968;28;20675;-61
2022/02/05 00:48:13;;;;;;;2.90;1.38;;;;;;;0.62;81.77;96833.38;2079355;28;20220;-61
2022/02/05 00:49:16;;;;;;;2.38;0.95;;;;;;;0.55;81.06;96834.44;2079585;28;20200;-62
2022/02/05 00:50:22;;;;;;;2.00;0.80;;;;;;;0.49;82.10;96827.69;2079150;28;20204;-62
2022/02/05 00:51:35;;;;;;;5.40;0.98;;;;;;;0.53;82.00;96826.72;2079323;28;20216;-62
2022/02/05 00:52:37;;;;;;;5.40;0.90;;;;;;;0.63;82.03;96845.38;2077912;28;20197;-62
2022/02/05 00:53:41;;;;;;;5.03;0.95;;;;;;;0.60;81.35;96835.13;2078833;28;20200;-62
2022/02/05 00:54:47;;;;;;;3.50;0.70;;;;;;;0.40;82.00;96825.34;2078829;28;20201;-61
2022/02/05 00:55:56;;;;;;;1.10;0.82;;;;;;;0.49;81.97;96843.16;2077525;28;20231;-62
2022/02/05 00:58:03;;;;;;;1.98;0.80;;;;;;;0.51;81.71;96848.25;2079584;28;20636;-62
2022/02/05 00:59:05;;;;;;;4.80;0.88;;;;;;;0.46;82.62;96850.94;2077869;28;20193;-62
2022/02/05 01:00:07;;;;;;;5.22;1.25;;;;;;;0.47;82.71;96855.25;2070500;28;20236;-62
2022/02/05 01:01:10;;;;;;;4.40;0.80;;;;;;;0.48;81.92;96856.91;2078907;28;20197;-62
2022/02/05 01:02:11;;;;;;;8.02;1.00;;;;;;;0.44;82.90;96855.31;2079682;28;20205;-62
2022/02/05 01:03:13;;;;;;;3.35;1.20;;;;;;;0.30;83.35;96844.50;2079618;28;20737;-62
2022/02/05 01:04:15;;;;;;;4.57;1.10;;;;;;;0.43;83.02;96858.75;2079351;28;20213;-62
2022/02/05 01:05:17;;;;;;;2.45;0.95;;;;;;;0.43;82.89;96861.31;2078881;28;20282;-62
2022/02/05 01:06:18;;;;;;;3.33;0.80;;;;;;;0.43;82.46;96868.22;2077924;28;20198;-63
2022/02/05 01:07:20;;;;;;;5.35;1.13;;;;;;;0.42;82.77;96867.38;2080475;28;20197;-62
2022/02/05 01:08:24;;;;;;;5.68;1.33;;;;;;;0.35;82.85;96863.25;2081120;28;20288;-62
2022/02/05 01:09:26;;;;;;;3.08;0.80;;;;;;;0.31;83.59;96870.19;2080429;28;20213;-62
2022/02/05 01:10:29;;;;;;;1.83;0.88;;;;;;;0.36;82.90;96865.78;2080658;28;20532;-62
2022/02/05 01:11:30;;;;;;;7.80;1.42;;;;;;;0.32;83.49;96871.06;2081012;28;20260;-62
2022/02/05 01:12:34;;;;;;;5.78;1.10;;;;;;;0.17;83.52;96852.50;2080897;28;20201;-62
2022/02/05 01:13:36;;;;;;;5.10;1.30;;;;;;;0.20;83.67;96864.47;2080910;28;20207;-62
2022/02/05 01:14:54;;;;;;;2.17;0.90;;;;;;;0.26;83.24;96866.91;2080166;28;20197;-62
2022/02/05 01:17:11;;;;;;;9.10;1.10;;;;;;;0.21;83.46;96880.78;2080989;28;20225;-62
2022/02/05 01:18:14;;;;;;;3.83;1.08;;;;;;;0.17;83.88;96883.41;2080982;28;20205;-62
2022/02/05 01:19:50;;;;;;;6.75;1.83;;;;;;;0.14;83.68;96868.03;2080878;28;20194;-62
2022/02/05 01:21:59;;;;;;;2.30;0.95;;;;;;;0.04;84.41;96868.25;2080991;28;20593;-62
2022/02/05 01:23:05;;;;;;;4.75;1.15;;;;;;;0.01;84.41;96869.19;2080804;28;20747;-62
2022/02/05 01:24:11;;;;;;;2.85;1.05;;;;;;;0.06;84.38;96877.66;2080253;28;20249;-62
2022/02/05 01:25:18;;;;;;;6.30;1.10;;;;;;;0.05;84.29;96881.13;2078846;28;20782;-62
2022/02/05 01:26:35;;;;;;;4.75;1.00;;;;;;;0.02;84.57;96878.63;2080391;28;20810;-62
2022/02/05 01:27:49;;;;;;;2.38;1.08;;;;;;;0.08;84.85;96882.75;2080735;28;20552;-62
2022/02/05 01:28:59;;;;;;;10.00;1.63;;;;;;;0.00;85.05;96885.53;2080988;28;20208;-62
2022/02/05 01:31:11;;;;;;;2.80;1.20;;;;;;;-0.23;85.47;96862.88;2080945;28;20203;-62
2022/02/05 01:32:18;;;;;;;2.25;1.02;;;;;;;-0.05;84.93;96884.78;2080581;28;20226;-62
2022/02/05 01:34:44;;;;;;;4.13;1.20;;;;;;;-0.13;85.60;96884.09;2080820;28;20208;-61
2022/02/05 01:54:28;;;;;;;15.63;1.88;;;;;;;-0.24;85.51;96892.06;2079550;28;20193;-62
2022/02/05 01:56:53;;;;;;;3.33;1.02;;;;;;;-0.32;85.74;96899.09;2080850;28;20197;-62
2022/02/05 01:58:12;;;;;;;4.13;0.90;;;;;;;-0.31;85.75;96893.06;2079914;28;20208;-62
2022/02/05 01:59:23;;;;;;;4.53;1.20;;;;;;;-0.47;86.32;96875.38;2080001;28;20397;-62
2022/02/05 02:05:54;;;;;;;5.80;1.52;;;;;;;-0.36;85.57;96893.16;2078944;28;20238;-62
2022/02/05 02:07:06;;;;;;;2.45;1.20;;;;;;;-0.42;86.04;96888.97;2080598;28;21012;-63
2022/02/05 02:12:02;;;;;;;6.35;1.40;;;;;;;-0.46;86.30;96896.81;2080377;28;20203;-60
2022/02/05 02:13:24;;;;;;;3.92;1.17;;;;;;;-0.46;86.57;96907.09;2080714;28;20197;-60
2022/02/05 02:15:34;;;;;;;11.57;1.85;;;;;;;-0.53;86.79;96890.94;2079981;28;20710;-60
2022/02/05 02:17:06;;;;;;;7.57;1.65;;;;;;;-0.46;86.73;96907.09;2079458;28;20204;-62
2022/02/05 02:18:40;;;;;;;3.60;1.45;;;;;;;-0.47;86.97;96907.97;2079609;28;20754;-59
2022/02/05 02:25:07;;;;;;;13.68;2.70;;;;;;;-0.53;87.39;96918.38;2079551;28;20223;-60
2022/02/05 02:28:39;;;;;;;3.38;1.75;;;;;;;-0.55;87.63;96915.81;2078625;28;20729;-60
2022/02/05 02:31:07;;;;;;;4.07;1.50;;;;;;;-0.60;87.47;96910.78;2072697;28;20314;-60
2022/02/05 02:32:08;;;;;;;2.95;1.70;;;;;;;-0.56;87.80;96910.75;2079638;28;20207;-60
2022/02/05 02:33:19;;;;;;;3.15;1.67;;;;;;;-0.56;87.75;96910.75;2079864;28;20198;-60
2022/02/05 02:34:27;;;;;;;2.97;1.50;;;;;;;-0.64;87.96;96909.16;2079195;28;20589;-60
2022/02/05 02:35:30;;;;;;;9.70;2.75;;;;;;;-0.64;88.25;96906.56;2079360;28;20279;-61
2022/02/05 02:37:57;;;;;;;6.05;2.92;;;;;;;-0.57;88.11;96927.03;2079851;28;20200;-60
2022/02/05 02:39:28;;;;;;;3.85;2.20;;;;;;;-0.62;88.21;96922.00;2079846;28;20198;-60
2022/02/05 02:41:56;;;;;;;3.50;1.90;;;;;;;-0.64;88.21;96918.59;2080424;28;20205;-60
2022/02/05 02:43:24;;;;;;;3.00;2.03;;;;;;;-0.66;88.58;96923.78;2080297;28;20202;-60
2022/02/05 02:44:19;;;;;;;9.15;2.17;;;;;;;-0.66;88.50;96931.50;2080109;28;20207;-60
2022/02/05 02:45:21;;;;;;;4.70;2.00;;;;;;;-0.65;88.71;96925.47;2079713;28;20245;-60
2022/02/05 02:46:22;;;;;;;6.30;2.35;;;;;;;-0.66;88.58;96931.50;2078999;28;20229;-60
2022/02/05 02:47:24;;;;;;;3.95;2.13;;;;;;;-0.58;88.27;96930.50;2080188;28;20199;-60
2022/02/05 02:48:26;;;;;;;4.53;2.30;;;;;;;-0.63;88.56;96934.03;2080213;28;20203;-60
2022/02/05 02:57:29;;;;;;;7.15;2.53;;;;;;;-0.68;88.62;96943.53;2079508;28;20210;-60
2022/02/05 02:58:33;;;;;;;5.28;2.65;;;;;;;-0.70;88.70;96937.56;2079291;28;20199;-61
2022/02/05 02:59:49;;;;;;;6.70;2.78;;;;;;;-0.62;88.69;96945.16;2071983;28;20334;-61
2022/02/05 03:00:56;;;;;;;5.05;2.70;;;;;;;-0.69;88.79;96941.81;2081000;28;20581;-60
2022/02/05 03:02:07;;;;;;;6.45;2.03;;;;;;;-0.67;88.58;96945.22;2087050;28;20575;-61
2022/02/05 03:03:08;;;;;;;11.77;2.72;;;;;;;-0.69;88.63;96952.13;2079217;28;20203;-60
2022/02/05 03:04:10;;;;;;;5.35;2.47;;;;;;;-0.70;88.75;96950.44;2080210;28;20664;-60
2022/02/05 03:05:11;;;;;;;7.70;2.45;;;;;;;-0.69;89.01;96952.13;2079657;28;20594;-61
2022/02/05 03:06:13;;;;;;;4.10;2.33;;;;;;;-0.90;88.71;96919.06;2080215;28;20199;-60
2022/02/05 03:07:15;;;;;;;11.65;2.85;;;;;;;-0.81;89.05;96937.75;2080262;28;20203;-60
2022/02/05 03:08:17;;;;;;;8.27;3.10;;;;;;;-0.85;89.18;96930.97;2080040;28;20253;-60
2022/02/05 03:09:19;;;;;;;6.68;2.95;;;;;;;-0.77;89.27;96948.00;2080107;28;20224;-61
2022/02/05 03:10:20;;;;;;;9.75;2.63;;;;;;;-0.91;89.20;96925.09;2079675;28;20629;-60
2022/02/05 03:11:23;;;;;;;8.65;2.95;;;;;;;-0.80;89.13;96941.19;2079164;28;20200;-60
2022/02/05 03:12:25;;;;;;;13.18;2.85;;;;;;;-0.82;88.88;96940.38;2079869;28;20707;-60
2022/02/05 03:13:26;;;;;;;6.50;2.65;;;;;;;-0.83;89.39;96941.25;2079617;28;20234;-60
2022/02/05 03:14:28;;;;;;;6.18;2.35;;;;;;;-0.81;89.45;96947.19;2080200;28;20215;-60
2022/02/05 03:15:37;;;;;;;9.15;3.20;;;;;;;-0.83;89.08;96939.50;2079671;28;20233;-61
2022/02/05 03:16:46;;;;;;;9.90;2.65;;;;;;;-0.87;89.16;96931.88;2079369;28;20274;-61
2022/02/05 03:18:07;;;;;;;5.85;2.67;;;;;;;-0.80;89.06;96949.75;2079686;28;20210;-60
2022/02/05 03:19:12;;;;;;;9.75;3.50;;;;;;;-0.82;88.92;96942.94;2079698;28;20200;-61
2022/02/05 03:20:13;;;;;;;5.68;3.20;;;;;;;-0.75;88.92;96941.09;2078878;28;20203;-61
2022/02/05 03:21:15;;;;;;;15.13;2.80;;;;;;;-0.92;88.98;96921.69;2079959;28;20261;-61
2022/02/05 03:22:18;;;;;;;12.27;3.00;;;;;;;-0.89;89.00;96928.50;2079959;28;20203;-60
2022/02/05 03:23:20;;;;;;;7.13;3.40;;;;;;;-0.83;89.54;96939.50;2080189;28;20732;-61
2022/02/05 03:24:21;;;;;;;11.00;4.10;;;;;;;-0.95;89.14;96920.91;2080115;28;20249;-61
2022/02/05 03:25:23;;;;;;;9.27;3.28;;;;;;;-0.80;88.98;96954.91;2078865;28;20632;-61
2022/02/05 03:26:25;;;;;;;5.65;3.03;;;;;;;-0.86;88.94;96949.88;2079079;28;20207;-60
2022/02/05 03:27:27;;;;;;;10.90;2.95;;;;;;;-0.87;89.27;96952.47;2078960;28;20195;-61
2022/02/05 03:28:28;;;;;;;8.18;3.08;;;;;;;-1.06;89.16;96926.22;2080012;28;20203;-61
2022/02/05 03:29:30;;;;;;;8.48;3.15;;;;;;;-0.88;89.39;96949.03;2079588;28;20203;-61
2022/02/05 03:30:32;;;;;;;8.40;2.72;;;;;;;-0.88;89.50;96958.47;2079227;28;20595;-62
2022/02/05 03:31:34;;;;;;;11.18;2.70;;;;;;;-0.88;89.50;96954.19;2079973;28;20213;-61
2022/02/05 03:32:35;;;;;;;5.65;2.47;;;;;;;-0.87;89.39;96952.47;2080010;28;20817;-61
2022/02/05 03:33:37;;;;;;;5.30;2.50;;;;;;;-0.94;89.56;96946.59;2079886;28;20196;-62
2022/02/05 03:34:39;;;;;;;11.15;2.88;;;;;;;-0.90;89.34;96947.34;2079990;28;20199;-61
2022/02/05 03:35:40;;;;;;;4.63;2.15;;;;;;;-0.87;88.94;96948.16;2079461;28;20235;-60
2022/02/05 03:36:42;;;;;;;17.00;2.60;;;;;;;-0.82;89.24;96963.53;2080056;28;20206;-61
2022/02/05 03:37:43;;;;;;;4.97;2.42;;;;;;;-0.83;89.19;96967.81;2078923;28;20211;-61
2022/02/05 03:38:45;;;;;;;9.15;2.17;;;;;;;-0.76;89.11;96967.72;2079960;28;20604;-61
2022/02/05 03:39:48;;;;;;;7.82;2.75;;;;;;;-0.80;89.45;96975.47;2079923;28;20203;-61
2022/02/05 03:40:49;;;;;;;7.30;3.00;;;;;;;-0.78;89.40;96974.59;2079334;28;20232;-62
2022/02/05 03:41:51;;;;;;;6.00;2.40;;;;;;;-0.77;89.33;96979.72;2079835;28;20207;-61
2022/02/05 03:42:52;;;;;;;4.93;1.98;;;;;;;-0.78;89.18;96975.44;2079932;28;20207;-61
2022/02/05 03:43:53;;;;;;;8.35;2.10;;;;;;;-0.70;88.71;96973.59;2079782;28;20198;-62
2022/02/05 03:44:55;;;;;;;7.88;2.17;;;;;;;-0.64;88.52;96981.19;2079801;28;20661;-61
2022/02/05 03:45:57;;;;;;;5.28;2.22;;;;;;;-0.57;88.26;96984.47;2079331;28;20243;-60
2022/02/05 03:46:59;;;;;;;9.65;2.50;;;;;;;-0.58;88.15;96980.22;2079864;28;20198;-61
2022/02/05 03:48:01;;;;;;;6.90;2.08;;;;;;;-0.71;88.08;96961.59;2079924;28;20751;-61
2022/02/05 03:49:03;;;;;;;4.32;2.00;;;;;;;-0.69;88.54;96967.53;2079048;28;20203;-61
2022/02/05 03:50:05;;;;;;;9.80;2.40;;;;;;;-0.67;88.56;96970.94;2079474;28;20211;-61
2022/02/05 03:51:06;;;;;;;10.60;2.45;;;;;;;-0.57;88.48;96988.78;2079771;28;20204;-61
2022/02/05 03:52:08;;;;;;;8.98;2.70;;;;;;;-0.58;88.23;96992.25;2079617;28;20303;-61
2022/02/05 03:53:09;;;;;;;10.82;2.85;;;;;;;-0.57;88.43;96992.19;2077258;28;20393;-61
2022/02/05 03:54:12;;;;;;;9.90;2.75;;;;;;;-0.54;88.29;96993.91;2079858;28;20212;-61
2022/02/05 03:55:14;;;;;;;4.07;1.90;;;;;;;-0.53;87.75;97001.59;2079517;28;20196;-61
2022/02/05 03:56:15;;;;;;;8.23;2.55;;;;;;;-0.54;87.75;96984.44;2079978;28;20409;-61
2022/02/05 03:57:17;;;;;;;5.85;2.88;;;;;;;-0.50;88.22;96992.97;2079880;28;20200;-61
2022/02/05 03:58:18;;;;;;;4.53;2.38;;;;;;;-0.62;87.38;96976.84;2079922;28;20642;-61
2022/02/05 03:59:20;;;;;;;8.75;3.00;;;;;;;-0.42;87.15;96998.81;2079849;28;20201;-61
2022/02/05 04:00:22;;;;;;;6.38;1.73;;;;;;;-0.45;86.94;96996.28;2078948;28;20217;-61
2022/02/05 04:01:23;;;;;;;5.20;2.38;;;;;;;-0.41;87.01;97003.94;2079680;28;20197;-62
2022/02/05 04:02:24;;;;;;;4.90;2.58;;;;;;;-0.50;87.10;96991.22;2079140;28;20197;-61
2022/02/05 04:03:26;;;;;;;8.63;2.28;;;;;;;-0.38;87.46;97005.59;2079636;28;20671;-61
2022/02/05 04:04:28;;;;;;;7.13;2.30;;;;;;;-0.36;87.06;97011.56;2079917;28;20678;-61
2022/02/05 04:05:30;;;;;;;7.22;2.10;;;;;;;-0.40;87.79;97018.47;2077570;28;20255;-61
2022/02/05 04:06:31;;;;;;;6.43;2.28;;;;;;;-0.40;87.35;97010.75;2079986;28;20696;-61
2022/02/05 04:07:37;;;;;;;2.67;1.63;;;;;;;-0.34;86.83;97002.06;2079834;28;20705;-62
2022/02/05 04:08:39;;;;;;;6.53;1.90;;;;;;;-0.31;86.67;97020.03;2079771;28;20200;-61
2022/02/05 04:09:46;;;;;;;7.22;1.60;;;;;;;-0.30;86.48;97019.16;2079822;28;20204;-61
2022/02/05 04:11:02;;;;;;;5.03;2.00;;;;;;;-0.27;86.87;97015.69;2078494;28;20224;-62
2022/02/05 04:16:22;;;;;;;12.80;2.50;;;;;;;-0.33;86.63;97001.22;2079396;28;20224;-61
2022/02/05 04:17:24;;;;;;;4.85;1.75;;;;;;;-0.26;86.80;97015.63;2079135;28;20283;-62
2022/02/05 04:18:27;;;;;;;4.22;2.00;;;;;;;-0.22;86.42;97027.59;2079047;28;20192;-61
2022/02/05 04:19:29;;;;;;;6.00;2.35;;;;;;;-0.23;86.81;97023.31;2078991;28;20258;-61
2022/02/05 04:20:32;;;;;;;7.85;1.98;;;;;;;-0.34;86.27;97002.06;2078344;28;20228;-61
2022/02/05 04:21:34;;;;;;;6.60;2.10;;;;;;;-0.15;86.07;97040.34;2076945;28;20207;-61
2022/02/05 04:22:35;;;;;;;8.93;2.20;;;;;;;-0.28;86.40;97009.66;2079789;28;20536;-61
2022/02/05 04:23:38;;;;;;;5.57;1.85;;;;;;;-0.30;86.48;97011.44;2079704;28;20245;-61
2022/02/05 04:24:40;;;;;;;6.10;1.70;;;;;;;-0.12;86.60;97040.28;2078881;28;20208;-61
2022/02/05 04:25:42;;;;;;;5.22;2.10;;;;;;;-0.16;86.38;97033.50;2079074;28;20247;-61
2022/02/05 04:26:43;;;;;;;4.20;2.17;;;;;;;-0.14;86.20;97034.31;2079170;28;20197;-62
2022/02/05 04:27:45;;;;;;;4.25;1.90;;;;;;;-0.09;86.22;97045.38;2079158;28;20197;-61
2022/02/05 04:28:47;;;;;;;7.10;2.40;;;;;;;-0.25;86.03;97019.09;2078992;28;20204;-61
2022/02/05 04:29:48;;;;;;;4.95;2.45;;;;;;;-0.06;86.00;97042.72;2080193;28;20204;-61
2022/02/05 04:30:50;;;;;;;9.57;1.92;;;;;;;0.01;85.77;97044.31;2079323;28;20583;-61
2022/02/05 04:31:51;;;;;;;5.10;1.83;;;;;;;-0.05;86.16;97037.56;2079701;28;20193;-61
2022/02/05 04:32:53;;;;;;;5.45;1.85;;;;;;;-0.05;86.16;97042.69;2079736;28;20201;-62
2022/02/05 04:33:57;;;;;;;4.30;1.60;;;;;;;-0.03;86.44;97048.66;2079797;28;20679;-62
2022/02/05 04:34:58;;;;;;;8.77;1.77;;;;;;;-0.03;86.27;97038.38;2079673;28;20193;-61
2022/02/05 04:36:00;;;;;;;11.20;1.92;;;;;;;-0.19;86.14;97018.13;2079220;28;20216;-60
2022/02/05 04:37:05;;;;;;;5.43;2.40;;;;;;;-0.05;86.53;97047.84;2079661;28;20602;-62
2022/02/05 04:38:07;;;;;;;5.68;1.88;;;;;;;-0.13;86.57;97043.75;2078435;28;20215;-61
2022/02/05 04:39:13;;;;;;;7.32;2.20;;;;;;;-0.05;86.82;97052.16;2078928;28;20244;-61
2022/02/05 04:40:30;;;;;;;9.57;1.73;;;;;;;-0.04;86.95;97052.13;2077798;28;20211;-62
2022/02/05 04:47:19;;;;;;;6.30;1.80;;;;;;;-0.01;86.69;97049.50;2072254;28;20566;-61
2022/02/05 04:49:15;;;;;;;3.60;1.70;;;;;;;0.07;86.53;97051.91;2079945;28;20238;-61
2022/02/05 04:53:17;;;;;;;7.90;2.33;;;;;;;0.10;86.47;97053.56;2081413;28;20866;-61
2022/02/05 04:56:00;;;;;;;5.60;2.78;;;;;;;0.06;86.26;97039.06;2079650;28;20236;-61
2022/02/05 04:58:48;;;;;;;8.40;1.90;;;;;;;0.05;86.41;97048.53;2080722;28;20216;-61
2022/02/05 05:02:32;;;;;;;9.43;1.30;;;;;;;0.14;85.81;97053.50;2079198;28;20197;-61
2022/02/05 05:07:51;;;;;;;6.00;1.50;;;;;;;0.05;85.93;97030.50;2080840;28;20247;-61
2022/02/05 05:09:21;;;;;;;8.52;1.20;;;;;;;0.21;85.17;97037.91;2081118;28;20204;-61
2022/02/05 05:11:52;;;;;;;2.88;1.40;;;;;;;0.22;85.08;97040.47;2080783;28;20215;-61
2022/02/05 05:20:34;;;;;;;6.70;1.90;;;;;;;-0.07;85.42;97007.56;2070876;28;20228;-60
2022/02/05 05:21:35;;;;;;;8.25;1.73;;;;;;;0.22;85.28;97049.91;2078179;28;20227;-61
2022/02/05 05:22:37;;;;;;;5.88;1.88;;;;;;;0.19;84.95;97056.81;2079103;28;20207;-61
2022/02/05 05:23:38;;;;;;;9.55;1.60;;;;;;;0.23;84.77;97056.75;2080937;28;20205;-61
2022/02/05 05:24:41;;;;;;;10.40;2.60;;;;;;;0.19;85.17;97056.81;2080730;28;20238;-61
2022/02/05 05:25:43;;;;;;;7.35;1.70;;;;;;;0.23;84.86;97057.59;2080350;28;20223;-61
2022/02/05 05:26:44;;;;;;;5.00;2.63;;;;;;;0.18;85.34;97059.44;2080903;28;20201;-61
2022/02/05 05:27:46;;;;;;;10.63;2.70;;;;;;;0.06;85.19;97045.09;2080472;28;20200;-61
2022/02/05 05:28:47;;;;;;;11.80;2.65;;;;;;;0.24;85.38;97063.63;2080253;28;20525;-61
2022/02/05 05:29:49;;;;;;;4.57;1.88;;;;;;;0.22;84.90;97061.06;2080123;28;20201;-62
2022/02/05 05:30:50;;;;;;;5.47;2.15;;;;;;;0.25;85.13;97065.31;2080361;28;20641;-61
2022/02/05 05:31:53;;;;;;;6.13;1.90;;;;;;;0.19;85.02;97053.41;2080341;28;20320;-61
2022/02/05 05:32:54;;;;;;;2.47;1.75;;;;;;;0.18;84.99;97070.59;2080292;28;20560;-61
2022/02/05 05:33:56;;;;;;;6.38;2.40;;;;;;;0.23;85.18;97065.31;2080900;28;20204;-61
2022/02/05 05:34:57;;;;;;;4.50;1.70;;;;;;;0.09;85.27;97049.31;2080969;28;20204;-61
2022/02/05 05:35:59;;;;;;;4.70;2.15;;;;;;;0.22;85.61;97073.97;2079661;28;20228;-61
2022/02/05 05:37:01;;;;;;;6.90;1.75;;;;;;;0.23;85.94;97072.22;2072150;28;20229;-61
2022/02/05 05:38:03;;;;;;;9.05;2.50;;;;;;;0.16;85.69;97067.19;2080220;28;20205;-61
2022/02/05 05:39:05;;;;;;;8.25;2.17;;;;;;;0.17;85.47;97066.28;2080776;28;20243;-61
2022/02/05 05:40:08;;;;;;;5.57;1.80;;;;;;;0.18;85.43;97077.47;2080162;28;20205;-61
2022/02/05 05:41:10;;;;;;;7.22;2.40;;;;;;;0.20;85.45;97075.72;2080653;28;20201;-61
2022/02/05 05:42:16;;;;;;;7.70;1.90;;;;;;;0.25;85.31;97066.16;2080834;28;20275;-61
2022/02/05 05:43:39;;;;;;;5.88;1.42;;;;;;;0.26;85.45;97082.47;2079577;28;20248;-61
2022/02/05 05:48:28;;;;;;;6.93;1.88;;;;;;;0.23;85.79;97083.38;2080812;28;20196;-61
2022/02/05 05:49:56;;;;;;;5.53;2.00;;;;;;;0.19;85.65;97085.16;2080351;28;20193;-61
2022/02/05 05:50:58;;;;;;;3.42;1.40;;;;;;;0.24;85.62;97084.25;2079531;28;20224;-62
2022/02/05 05:52:00;;;;;;;5.22;1.50;;;;;;;0.16;85.83;97086.97;2078252;28;20224;-61
2022/02/05 05:53:03;;;;;;;6.32;1.35;;;;;;;0.14;86.53;97093.88;2080088;28;20201;-61
2022/02/05 05:54:05;;;;;;;8.45;1.80;;;;;;;0.15;86.63;97087.81;2078856;28;20202;-61
2022/02/05 05:55:07;;;;;;;7.03;1.80;;;;;;;0.15;86.68;97087.81;2080090;28;20209;-61
2022/02/05 05:56:09;;;;;;;4.40;1.50;;;;;;;0.14;86.59;97084.41;2080551;28;20201;-61
2022/02/05 05:57:11;;;;;;;2.55;1.40;;;;;;;0.16;86.48;97086.97;2080739;28;20211;-61
2022/02/05 05:58:14;;;;;;;14.98;2.05;;;;;;;0.15;86.92;97087.81;2077794;28;20558;-61
2022/02/05 05:59:15;;;;;;;5.45;1.90;;;;;;;0.12;86.72;97078.44;2080639;28;20499;-61
2022/02/05 06:00:17;;;;;;;11.65;2.72;;;;;;;0.16;86.89;97094.69;2080183;28;20205;-61
2022/02/05 06:01:18;;;;;;;5.32;1.30;;;;;;;0.24;86.62;97086.81;2080430;28;20204;-61
2022/02/05 06:02:20;;;;;;;4.80;1.30;;;;;;;0.27;86.75;97081.59;2080126;28;20205;-61
2022/02/05 06:03:22;;;;;;;7.65;1.65;;;;;;;0.32;86.41;97084.91;2079303;28;20197;-61
2022/02/05 06:04:23;;;;;;;6.68;1.50;;;;;;;0.12;86.84;97063.00;2080600;28;20208;-61
2022/02/05 06:05:25;;;;;;;7.13;2.10;;;;;;;0.29;86.65;97082.41;2080075;28;20225;-63
2022/02/05 06:06:26;;;;;;;6.75;1.63;;;;;;;0.32;86.44;97090.06;2080690;28;20216;-63
2022/02/05 06:07:28;;;;;;;7.60;1.85;;;;;;;0.27;86.78;97079.00;2080694;28;20670;-63
2022/02/05 06:08:29;;;;;;;5.25;2.33;;;;;;;0.37;86.26;97095.97;2080690;28;20600;-63
2022/02/05 06:09:33;;;;;;;5.53;1.60;;;;;;;0.38;86.39;97095.09;2079716;28;20273;-62
2022/02/05 06:10:34;;;;;;;7.57;1.75;;;;;;;0.23;86.34;97069.66;2077950;28;20314;-63
2022/02/05 06:11:36;;;;;;;6.82;2.58;;;;;;;0.36;86.63;97092.56;2080425;28;20196;-63
2022/02/05 06:12:37;;;;;;;4.93;1.60;;;;;;;0.40;86.68;97101.06;2080520;28;20217;-63
2022/02/05 06:13:39;;;;;;;6.22;1.60;;;;;;;0.36;86.49;97078.81;2080615;28;20524;-64
2022/02/05 06:14:41;;;;;;;5.70;1.75;;;;;;;0.46;86.23;97102.69;2080514;28;20201;-63
2022/02/05 06:15:49;;;;;;;8.13;3.30;;;;;;;0.45;86.24;97108.69;2079956;28;20233;-63
2022/02/05 06:17:01;;;;;;;10.85;2.60;;;;;;;0.46;86.01;97095.78;2080358;28;20636;-62
2022/02/05 06:18:03;;;;;;;4.40;1.83;;;;;;;0.49;85.49;97106.03;2078859;28;20686;-63
2022/02/05 06:19:04;;;;;;;5.60;1.80;;;;;;;0.47;85.98;97118.13;2080690;28;20208;-63
2022/02/05 06:20:08;;;;;;;8.55;1.70;;;;;;;0.47;86.27;97112.97;2079998;28;20291;-63
2022/02/05 06:21:10;;;;;;;8.10;1.55;;;;;;;0.56;85.73;97124.81;2080115;28;20208;-63
2022/02/05 06:22:12;;;;;;;8.93;1.92;;;;;;;0.56;85.92;97117.06;2080497;28;20644;-62
2022/02/05 06:23:14;;;;;;;8.95;2.20;;;;;;;0.55;85.53;97112.81;2080405;28;20204;-61
2022/02/05 06:24:15;;;;;;;7.90;2.13;;;;;;;0.53;85.45;97112.84;2080298;28;20204;-61
2022/02/05 06:25:17;;;;;;;9.73;1.73;;;;;;;0.53;85.44;97118.00;2079875;28;20710;-61
2022/02/05 06:26:18;;;;;;;7.53;1.55;;;;;;;0.59;84.82;97117.84;2080212;28;20201;-61
2022/02/05 06:27:19;;;;;;;9.27;1.77;;;;;;;0.54;84.92;97119.66;2080405;28;20201;-60
2022/02/05 06:28:21;;;;;;;6.80;1.60;;;;;;;0.44;85.04;97092.41;2080319;28;20193;-60
2022/02/05 06:29:23;;;;;;;5.88;2.30;;;;;;;0.51;85.24;97114.59;2080321;28;20239;-63
2022/02/05 06:30:24;;;;;;;7.05;2.20;;;;;;;0.42;85.36;97103.63;2080034;28;20236;-63
2022/02/05 06:31:26;;;;;;;12.10;2.33;;;;;;;0.53;85.18;97122.28;2079632;28;20615;-63
2022/02/05 06:32:27;;;;;;;6.20;2.40;;;;;;;0.54;85.63;97124.81;2079729;28;20559;-63
2022/02/05 06:33:29;;;;;;;7.38;2.42;;;;;;;0.51;85.54;97119.75;2080089;28;20205;-63
2022/02/05 06:34:30;;;;;;;7.65;2.75;;;;;;;0.52;85.54;97121.44;2080346;28;20589;-63
2022/02/05 06:35:32;;;;;;;12.88;3.00;;;;;;;0.42;85.51;97099.31;2079703;28;20331;-63
2022/02/05 06:36:34;;;;;;;8.70;2.97;;;;;;;0.56;85.54;97115.31;2080222;28;20193;-63
2022/02/05 06:37:35;;;;;;;11.32;3.05;;;;;;;0.54;85.38;97119.66;2080308;28;20200;-64
2022/02/05 06:38:37;;;;;;;9.13;3.30;;;;;;;0.54;85.39;97118.81;2080392;28;20203;-63
2022/02/05 06:39:38;;;;;;;9.32;2.97;;;;;;;0.50;85.47;97117.19;2080267;28;20208;-63
2022/02/05 06:40:40;;;;;;;18.67;3.30;;;;;;;0.52;85.73;97116.28;2079930;28;20225;-63
2022/02/05 06:41:46;;;;;;;10.38;1.95;;;;;;;0.37;85.71;97107.16;2080200;28;20203;-63
2022/02/05 06:42:48;;;;;;;12.55;3.60;;;;;;;0.43;85.92;97118.19;2080249;28;20201;-63
2022/02/05 06:43:49;;;;;;;5.13;2.13;;;;;;;0.53;86.11;97122.28;2080369;28;20197;-63
2022/02/05 06:44:51;;;;;;;8.38;2.05;;;;;;;0.51;86.17;97119.75;2080441;28;20197;-63
2022/02/05 06:45:52;;;;;;;5.93;1.65;;;;;;;0.58;85.34;97129.03;2079098;28;20217;-63
2022/02/05 06:46:54;;;;;;;5.10;1.88;;;;;;;0.44;85.76;97110.44;2079639;28;20209;-63
2022/02/05 06:47:55;;;;;;;12.13;2.50;;;;;;;0.56;85.77;97133.38;2078299;28;20193;-63
2022/02/05 06:48:57;;;;;;;5.38;2.20;;;;;;;0.43;85.73;97116.44;2080276;28;20200;-64
2022/02/05 06:49:58;;;;;;;6.35;1.55;;;;;;;0.67;85.32;97124.59;2080137;28;20208;-63
2022/02/05 06:51:00;;;;;;;10.05;2.72;;;;;;;0.61;85.69;97124.69;2079957;28;20262;-61
2022/02/05 06:52:06;;;;;;;6.13;2.25;;;;;;;0.57;85.58;97134.25;2079957;28;20225;-63
2022/02/05 06:53:08;;;;;;;5.60;1.95;;;;;;;0.52;85.61;97121.44;2079819;28;20197;-63
2022/02/05 06:54:09;;;;;;;7.75;1.70;;;;;;;0.58;85.79;97136.75;2080177;28;20591;-63
2022/02/05 06:55:12;;;;;;;5.85;2.10;;;;;;;0.55;85.82;97142.00;2079691;28;20658;-63
2022/02/05 06:56:13;;;;;;;11.63;2.05;;;;;;;0.46;85.72;97124.13;2080098;28;20218;-60
2022/02/05 06:57:15;;;;;;;6.40;1.70;;;;;;;0.49;85.53;97131.81;2080075;28;20208;-60
2022/02/05 06:58:16;;;;;;;12.60;1.90;;;;;;;0.51;85.37;97135.22;2079643;28;20545;-60
2022/02/05 06:59:18;;;;;;;8.40;2.15;;;;;;;0.53;85.61;97142.88;2078701;28;20209;-62
2022/02/05 07:00:19;;;;;;;7.63;1.65;;;;;;;0.51;85.19;97129.19;2079654;28;20592;-62
2022/02/05 07:01:21;;;;;;;6.90;1.80;;;;;;;0.58;85.53;97147.06;2079479;28;20206;-62
2022/02/05 07:02:22;;;;;;;9.10;1.70;;;;;;;0.63;85.67;97146.13;2071410;28;20205;-62
2022/02/05 07:03:24;;;;;;;7.38;1.60;;;;;;;0.54;85.68;97129.97;2079309;28;20200;-62
2022/02/05 07:04:27;;;;;;;9.48;2.13;;;;;;;0.57;85.10;97137.66;2079295;28;20232;-62
2022/02/05 07:05:28;;;;;;;4.75;1.85;;;;;;;0.55;85.31;97144.56;2078627;28;20290;-62
2022/02/05 07:06:31;;;;;;;4.47;1.80;;;;;;;0.54;85.43;97145.44;2079297;28;20200;-63
2022/02/05 07:07:34;;;;;;;10.88;2.30;;;;;;;0.52;85.22;97151.53;2078847;28;20953;-62
2022/02/05 07:08:35;;;;;;;12.88;2.00;;;;;;;0.51;84.73;97144.66;2080117;28;20197;-62